Time;durP1;ratioP1;P1;durP2;ratioP2;P2;SDS_P1;SDS_P2;PMS_P1;PMS_P2;Temp;Humidity;BMP_temperature;BMP_pressure;BME280_temperature;BME280_humidity;BME280_pressure;Samples;Min_cycle;Max_cycle;Signal;HPM_P1;HPM_P2
2023/05/31 00:00:13;;;;;;;4.07;1.33;;;;;;;;;;5020615;28;20205;-32
2023/05/31 00:02:40;;;;;;;2.20;1.60;;;;;;;;;;5017738;28;20217;-34
2023/05/31 00:05:10;;;;;;;2.70;1.50;;;;;;;;;;5019513;28;20441;-30
2023/05/31 00:07:37;;;;;;;2.47;1.60;;;;;;;;;;5030636;28;20220;-31
2023/05/31 00:10:04;;;;;;;2.53;1.33;;;;;;;;;;5016012;28;20217;-30
2023/05/31 00:12:31;;;;;;;2.20;1.60;;;;;;;;;;5029454;28;20228;-33
2023/05/31 00:14:59;;;;;;;2.57;1.37;;;;;;;;;;5029550;28;20206;-34
2023/05/31 00:17:26;;;;;;;2.93;1.60;;;;;;;;;;5013490;28;20210;-35
2023/05/31 00:19:53;;;;;;;1.63;1.50;;;;;;;;;;5017634;28;20211;-35
2023/05/31 00:22:21;;;;;;;2.83;1.67;;;;;;;;;;5011477;28;20213;-33
2023/05/31 00:24:48;;;;;;;4.50;1.80;;;;;;;;;;5010663;28;20208;-32
2023/05/31 00:27:16;;;;;;;2.43;1.83;;;;;;;;;;5020512;28;20232;-32
2023/05/31 00:29:43;;;;;;;3.63;1.50;;;;;;;;;;5018927;28;20226;-32
2023/05/31 00:32:10;;;;;;;2.30;1.50;;;;;;;;;;5017071;28;20231;-30
2023/05/31 00:34:37;;;;;;;4.13;1.87;;;;;;;;;;5031659;28;20205;-30
2023/05/31 00:37:04;;;;;;;3.40;1.60;;;;;;;;;;5017405;28;20720;-35
2023/05/31 00:39:33;;;;;;;3.77;1.70;;;;;;;;;;5014863;28;20303;-32
2023/05/31 00:42:00;;;;;;;1.47;1.37;;;;;;;;;;5014724;28;20679;-31
2023/05/31 00:44:29;;;;;;;1.60;1.30;;;;;;;;;;5029491;28;20210;-33
2023/05/31 00:47:02;;;;;;;2.57;1.30;;;;;;;;;;5021742;28;20305;-33
2023/05/31 00:49:30;;;;;;;1.33;1.20;;;;;;;;;;5029033;28;20244;-36
2023/05/31 00:51:58;;;;;;;1.80;1.60;;;;;;;;;;5033998;28;20235;-33
2023/05/31 00:54:25;;;;;;;2.20;1.50;;;;;;;;;;5026923;28;20206;-34
2023/05/31 00:56:54;;;;;;;2.30;1.20;;;;;;;;;;5030970;28;20224;-33
2023/05/31 00:59:22;;;;;;;1.27;1.17;;;;;;;;;;5016426;28;20214;-32
2023/05/31 01:01:49;;;;;;;1.60;1.30;;;;;;;;;;5022797;28;20213;-33
2023/05/31 01:04:17;;;;;;;1.43;1.33;;;;;;;;;;5017898;28;20247;-32
2023/05/31 01:06:44;;;;;;;4.30;1.40;;;;;;;;;;5021280;28;20228;-35
2023/05/31 01:09:11;;;;;;;2.20;1.37;;;;;;;;;;5032751;28;20221;-35
2023/05/31 01:11:46;;;;;;;1.73;1.20;;;;;;;;;;5026503;28;20213;-33
2023/05/31 01:14:20;;;;;;;2.50;1.83;;;;;;;;;;5031144;28;20208;-34
2023/05/31 01:16:52;;;;;;;4.70;1.50;;;;;;;;;;5025029;28;20237;-31
2023/05/31 01:19:22;;;;;;;4.03;1.60;;;;;;;;;;5017599;28;20585;-34
2023/05/31 01:21:52;;;;;;;3.47;1.47;;;;;;;;;;5018019;28;20707;-30
2023/05/31 01:24:26;;;;;;;3.37;1.40;;;;;;;;;;5016294;28;20241;-33
2023/05/31 01:26:58;;;;;;;2.20;1.47;;;;;;;;;;5022063;28;20228;-32
2023/05/31 01:29:27;;;;;;;3.13;1.33;;;;;;;;;;5032891;28;20208;-33
2023/05/31 01:31:59;;;;;;;1.97;1.60;;;;;;;;;;5026803;28;20223;-31
2023/05/31 01:34:26;;;;;;;3.93;1.80;;;;;;;;;;5029961;28;20203;-32
2023/05/31 01:36:54;;;;;;;2.93;1.60;;;;;;;;;;5032816;28;20221;-34
2023/05/31 01:39:22;;;;;;;3.77;1.67;;;;;;;;;;5032958;28;20240;-32
2023/05/31 01:41:50;;;;;;;2.80;1.60;;;;;;;;;;5024907;28;20243;-35
2023/05/31 01:44:19;;;;;;;2.40;1.23;;;;;;;;;;5022968;28;20211;-34
2023/05/31 01:46:47;;;;;;;5.40;1.73;;;;;;;;;;5016032;28;20233;-32
2023/05/31 01:49:15;;;;;;;1.90;1.30;;;;;;;;;;5016054;28;20220;-32
2023/05/31 01:51:43;;;;;;;1.97;1.60;;;;;;;;;;5012460;28;20206;-33
2023/05/31 01:54:10;;;;;;;1.70;1.23;;;;;;;;;;5014758;28;20209;-32
2023/05/31 01:56:38;;;;;;;1.87;1.50;;;;;;;;;;5012234;28;20228;-31
2023/05/31 01:59:06;;;;;;;1.50;1.40;;;;;;;;;;5019218;28;20219;-29
2023/05/31 02:01:35;;;;;;;2.63;1.83;;;;;;;;;;5028824;28;20215;-34
2023/05/31 02:04:02;;;;;;;1.93;1.47;;;;;;;;;;5020422;28;20303;-33
2023/05/31 02:06:30;;;;;;;2.13;1.60;;;;;;;;;;5020047;28;20227;-33
2023/05/31 02:08:57;;;;;;;1.80;1.40;;;;;;;;;;5015135;28;20219;-31
2023/05/31 02:11:25;;;;;;;2.63;1.40;;;;;;;;;;5033862;28;20211;-31
2023/05/31 02:13:52;;;;;;;1.97;1.37;;;;;;;;;;5024559;28;20229;-35
2023/05/31 02:16:20;;;;;;;1.50;1.40;;;;;;;;;;5011215;28;20236;-33
2023/05/31 02:18:48;;;;;;;5.83;1.80;;;;;;;;;;5029228;28;20589;-31
2023/05/31 02:21:15;;;;;;;3.07;1.73;;;;;;;;;;5023353;28;20210;-32
2023/05/31 02:23:43;;;;;;;2.57;1.53;;;;;;;;;;5031694;28;20200;-34
2023/05/31 02:26:10;;;;;;;3.53;1.50;;;;;;;;;;5022436;28;20227;-33
2023/05/31 02:28:38;;;;;;;2.03;1.63;;;;;;;;;;5024743;28;20208;-34
2023/05/31 02:31:05;;;;;;;1.80;1.50;;;;;;;;;;5027224;28;20209;-34
2023/05/31 02:33:32;;;;;;;2.40;1.70;;;;;;;;;;5017308;28;20230;-31
2023/05/31 02:36:01;;;;;;;1.43;1.23;;;;;;;;;;5030903;28;20239;-32
2023/05/31 02:38:28;;;;;;;3.23;1.57;;;;;;;;;;5031022;28;20207;-36
2023/05/31 02:40:55;;;;;;;2.10;1.53;;;;;;;;;;5029534;28;20215;-32
2023/05/31 02:43:22;;;;;;;2.87;1.67;;;;;;;;;;5019614;28;20212;-30
2023/05/31 02:45:50;;;;;;;1.77;1.50;;;;;;;;;;5007631;28;20232;-31
2023/05/31 02:48:17;;;;;;;2.53;1.27;;;;;;;;;;5025577;28;20222;-34
2023/05/31 02:50:44;;;;;;;4.13;1.50;;;;;;;;;;5022673;28;20227;-34
2023/05/31 02:53:13;;;;;;;2.60;1.60;;;;;;;;;;5030760;28;20227;-33
2023/05/31 02:55:40;;;;;;;3.47;1.60;;;;;;;;;;5018033;28;20252;-35
2023/05/31 02:58:07;;;;;;;1.90;1.53;;;;;;;;;;5010427;28;20205;-34
2023/05/31 03:00:34;;;;;;;3.93;1.60;;;;;;;;;;5024049;28;20215;-35
2023/05/31 03:03:02;;;;;;;2.57;1.70;;;;;;;;;;5024561;28;20215;-34
2023/05/31 03:05:29;;;;;;;2.40;2.00;;;;;;;;;;5022282;28;20224;-34
2023/05/31 03:07:56;;;;;;;3.00;1.80;;;;;;;;;;5030864;28;20678;-34
2023/05/31 03:10:25;;;;;;;1.83;1.50;;;;;;;;;;5030395;28;20204;-31
2023/05/31 03:12:52;;;;;;;3.30;1.70;;;;;;;;;;5026673;28;20243;-34
2023/05/31 03:15:20;;;;;;;2.17;1.40;;;;;;;;;;5028236;28;20220;-34
2023/05/31 03:17:47;;;;;;;2.70;1.60;;;;;;;;;;5267425;22;20295;-28
2023/05/31 03:20:14;;;;;;;2.40;1.53;;;;;;;;;;5029072;28;20232;-27
2023/05/31 03:22:41;;;;;;;3.17;1.90;;;;;;;;;;5030799;28;20217;-28
2023/05/31 03:25:08;;;;;;;2.77;1.53;;;;;;;;;;5027873;28;20211;-28
2023/05/31 03:27:37;;;;;;;1.57;1.47;;;;;;;;;;5026980;28;20208;-30
2023/05/31 03:30:06;;;;;;;2.20;1.40;;;;;;;;;;5030163;28;20207;-31
2023/05/31 03:32:33;;;;;;;1.60;1.33;;;;;;;;;;5022557;28;20226;-28
2023/05/31 03:35:00;;;;;;;2.43;1.43;;;;;;;;;;5030048;28;20204;-32
2023/05/31 03:37:27;;;;;;;2.10;1.40;;;;;;;;;;5031738;28;20504;-26
2023/05/31 03:39:54;;;;;;;1.77;1.47;;;;;;;;;;5033334;28;20209;-28
2023/05/31 03:42:21;;;;;;;2.17;1.63;;;;;;;;;;5020594;28;20204;-26
2023/05/31 03:44:50;;;;;;;2.97;1.40;;;;;;;;;;5027342;28;20204;-29
2023/05/31 03:47:17;;;;;;;2.53;1.57;;;;;;;;;;5020274;28;20243;-28
2023/05/31 03:49:44;;;;;;;2.60;1.40;;;;;;;;;;5032178;28;20203;-27
2023/05/31 03:52:12;;;;;;;2.40;1.40;;;;;;;;;;5032276;28;20680;-25
2023/05/31 03:54:39;;;;;;;2.90;1.30;;;;;;;;;;5032188;28;20231;-26
2023/05/31 03:57:07;;;;;;;2.57;1.30;;;;;;;;;;5020170;28;20238;-28
2023/05/31 03:59:35;;;;;;;1.43;1.20;;;;;;;;;;5022839;28;20210;-25
2023/05/31 04:02:04;;;;;;;1.57;1.37;;;;;;;;;;5025684;28;20565;-28
2023/05/31 04:04:31;;;;;;;2.10;1.53;;;;;;;;;;5023439;28;20194;-27
2023/05/31 04:07:07;;;;;;;2.10;1.50;;;;;;;;;;5018840;28;20229;-29
2023/05/31 04:09:38;;;;;;;1.30;1.20;;;;;;;;;;5020332;28;20210;-28
2023/05/31 04:12:05;;;;;;;1.87;1.33;;;;;;;;;;5029807;28;20202;-29
2023/05/31 04:14:36;;;;;;;2.63;1.30;;;;;;;;;;5032708;28;20218;-29
2023/05/31 04:17:06;;;;;;;1.60;1.37;;;;;;;;;;5022035;28;20242;-25
2023/05/31 04:19:39;;;;;;;1.80;1.17;;;;;;;;;;5036426;28;20260;-29
2023/05/31 04:22:09;;;;;;;3.70;1.73;;;;;;;;;;5035921;28;20196;-27
2023/05/31 04:24:36;;;;;;;3.83;1.50;;;;;;;;;;5036091;28;20196;-27
2023/05/31 04:27:03;;;;;;;5.13;1.70;;;;;;;;;;5032158;28;20222;-28
2023/05/31 04:29:30;;;;;;;1.90;1.30;;;;;;;;;;5036212;28;20202;-25
2023/05/31 04:31:58;;;;;;;2.07;1.50;;;;;;;;;;5029015;28;20279;-28
2023/05/31 04:34:27;;;;;;;2.83;1.50;;;;;;;;;;5023859;28;20230;-27
2023/05/31 04:36:55;;;;;;;2.23;1.40;;;;;;;;;;5016540;28;20223;-26
2023/05/31 04:39:22;;;;;;;1.97;1.40;;;;;;;;;;5016885;28;20246;-24
2023/05/31 04:41:49;;;;;;;2.53;1.33;;;;;;;;;;5023246;28;20210;-30
2023/05/31 04:44:24;;;;;;;4.63;1.60;;;;;;;;;;5027340;28;20199;-25
2023/05/31 04:46:51;;;;;;;2.10;1.20;;;;;;;;;;5028146;28;20226;-29
2023/05/31 04:49:19;;;;;;;3.50;1.90;;;;;;;;;;5036055;28;20210;-29
2023/05/31 04:51:47;;;;;;;5.10;1.87;;;;;;;;;;5036047;28;20235;-27
2023/05/31 04:54:14;;;;;;;1.73;1.60;;;;;;;;;;5036262;28;20222;-27
2023/05/31 04:56:42;;;;;;;2.83;1.47;;;;;;;;;;5031407;28;20312;-29
2023/05/31 04:59:09;;;;;;;2.20;1.53;;;;;;;;;;5036541;28;20219;-27
2023/05/31 05:01:37;;;;;;;2.33;1.30;;;;;;;;;;5033026;28;20206;-29
2023/05/31 05:04:04;;;;;;;1.83;1.23;;;;;;;;;;5032818;28;20210;-30
2023/05/31 05:06:31;;;;;;;3.07;1.63;;;;;;;;;;5036028;28;20231;-28
2023/05/31 05:08:59;;;;;;;2.27;1.53;;;;;;;;;;5034375;28;20218;-26
2023/05/31 05:11:26;;;;;;;2.53;1.90;;;;;;;;;;5028699;28;20203;-25
2023/05/31 05:13:54;;;;;;;6.13;1.50;;;;;;;;;;5035347;28;20218;-25
2023/05/31 05:16:21;;;;;;;4.93;1.63;;;;;;;;;;5029409;28;20481;-28
2023/05/31 05:18:48;;;;;;;3.30;1.60;;;;;;;;;;5030312;28;20208;-30
2023/05/31 05:21:15;;;;;;;2.87;1.33;;;;;;;;;;5035401;28;20196;-27
2023/05/31 05:23:42;;;;;;;2.53;1.20;;;;;;;;;;5035053;28;20209;-26
2023/05/31 05:26:11;;;;;;;2.37;1.50;;;;;;;;;;5028030;28;20235;-29
2023/05/31 05:28:38;;;;;;;1.47;1.37;;;;;;;;;;5035630;28;20211;-28
2023/05/31 05:31:05;;;;;;;4.30;1.40;;;;;;;;;;5033252;28;20215;-29
2023/05/31 05:33:33;;;;;;;3.80;1.70;;;;;;;;;;5032800;28;20220;-29
2023/05/31 05:36:01;;;;;;;2.57;1.60;;;;;;;;;;5034839;28;20218;-28
2023/05/31 05:38:28;;;;;;;1.57;1.30;;;;;;;;;;5035450;28;20216;-25
2023/05/31 05:40:55;;;;;;;2.37;1.77;;;;;;;;;;5028730;28;20203;-27
2023/05/31 05:43:23;;;;;;;1.40;1.30;;;;;;;;;;5034273;28;20212;-27
2023/05/31 05:45:50;;;;;;;2.23;1.20;;;;;;;;;;5031982;28;20228;-30
2023/05/31 05:48:17;;;;;;;4.13;1.83;;;;;;;;;;5033902;28;20211;-26
2023/05/31 05:50:45;;;;;;;1.90;1.70;;;;;;;;;;5034629;28;20215;-29
2023/05/31 05:53:12;;;;;;;2.30;1.60;;;;;;;;;;5034661;28;20577;-30
2023/05/31 05:55:39;;;;;;;4.43;1.53;;;;;;;;;;5021107;28;20230;-24
2023/05/31 05:58:06;;;;;;;3.77;1.53;;;;;;;;;;5032004;28;20202;-26
2023/05/31 06:00:35;;;;;;;4.00;1.50;;;;;;;;;;5034878;28;20220;-27
2023/05/31 06:03:03;;;;;;;2.00;1.40;;;;;;;;;;5030429;28;20668;-29
2023/05/31 06:05:30;;;;;;;2.40;1.53;;;;;;;;;;5034340;28;20306;-26
2023/05/31 06:07:57;;;;;;;4.73;1.60;;;;;;;;;;5034957;28;20274;-29
2023/05/31 06:10:24;;;;;;;3.00;1.80;;;;;;;;;;5031364;28;20717;-27
2023/05/31 06:12:51;;;;;;;3.67;1.60;;;;;;;;;;5021850;28;20214;-29
2023/05/31 06:15:18;;;;;;;1.87;1.20;;;;;;;;;;5030359;28;20237;-26
2023/05/31 06:17:48;;;;;;;2.87;1.80;;;;;;;;;;5019654;28;20220;-30
2023/05/31 06:20:16;;;;;;;1.50;1.40;;;;;;;;;;5032173;28;20213;-28
2023/05/31 06:22:43;;;;;;;3.67;1.60;;;;;;;;;;5033904;28;20209;-26
2023/05/31 06:25:12;;;;;;;2.00;1.50;;;;;;;;;;5030037;28;20245;-30
2023/05/31 06:27:41;;;;;;;5.63;1.73;;;;;;;;;;5027559;28;20228;-28
2023/05/31 06:30:09;;;;;;;3.10;1.70;;;;;;;;;;5025555;28;20212;-29
2023/05/31 06:32:37;;;;;;;1.60;1.47;;;;;;;;;;5021774;28;20293;-25
2023/05/31 06:35:06;;;;;;;3.17;1.60;;;;;;;;;;5032922;28;20219;-29
2023/05/31 06:37:33;;;;;;;3.77;1.77;;;;;;;;;;5033796;28;20216;-27
2023/05/31 06:40:01;;;;;;;4.97;1.90;;;;;;;;;;5026956;28;20207;-29
2023/05/31 06:42:28;;;;;;;2.57;1.70;;;;;;;;;;5027336;28;20215;-27
2023/05/31 06:44:55;;;;;;;2.23;1.60;;;;;;;;;;5024769;28;20199;-28
2023/05/31 06:47:22;;;;;;;2.93;1.67;;;;;;;;;;5022932;28;20229;-26
2023/05/31 06:49:49;;;;;;;3.73;1.53;;;;;;;;;;5033485;28;20212;-26
2023/05/31 06:52:17;;;;;;;2.93;1.63;;;;;;;;;;5033647;28;20209;-26
2023/05/31 06:54:45;;;;;;;3.03;1.83;;;;;;;;;;5033080;28;20226;-28
2023/05/31 06:57:12;;;;;;;2.10;1.67;;;;;;;;;;5030246;28;20230;-25
2023/05/31 06:59:39;;;;;;;4.70;1.73;;;;;;;;;;5033292;28;20218;-31
2023/05/31 07:02:07;;;;;;;3.80;1.77;;;;;;;;;;5026530;28;20214;-26
2023/05/31 07:04:34;;;;;;;4.15;1.73;;;;;;;;;;5030388;28;20213;-26
2023/05/31 07:07:03;;;;;;;4.68;1.90;;;;;;;;;;5033168;28;20223;-27
2023/05/31 07:09:31;;;;;;;5.82;1.80;;;;;;;;;;5031712;28;20207;-29
2023/05/31 07:11:58;;;;;;;2.33;1.55;;;;;;;;;;5025440;28;20208;-25
2023/05/31 07:14:26;;;;;;;1.42;1.30;;;;;;;;;;5032798;28;20520;-29
2023/05/31 07:16:56;;;;;;;5.03;1.88;;;;;;;;;;5025889;28;20243;-28
2023/05/31 07:19:23;;;;;;;2.45;1.60;;;;;;;;;;5031650;28;20211;-29
2023/05/31 07:21:50;;;;;;;4.22;1.40;;;;;;;;;;5032719;28;20205;-26
2023/05/31 07:24:17;;;;;;;3.92;1.95;;;;;;;;;;5032660;28;20208;-27
2023/05/31 07:26:46;;;;;;;3.30;1.58;;;;;;;;;;5026633;28;20252;-27
2023/05/31 07:29:13;;;;;;;7.22;1.65;;;;;;;;;;5030780;28;20208;-29
2023/05/31 07:31:40;;;;;;;4.13;1.77;;;;;;;;;;5025949;28;20715;-31
2023/05/31 07:34:09;;;;;;;4.45;1.95;;;;;;;;;;5028655;28;20255;-26
2023/05/31 07:36:36;;;;;;;4.88;2.17;;;;;;;;;;5019665;28;20300;-29
2023/05/31 07:39:05;;;;;;;4.20;1.48;;;;;;;;;;5012998;28;20225;-29
2023/05/31 07:41:32;;;;;;;2.58;1.70;;;;;;;;;;5024881;28;20210;-26
2023/05/31 07:44:01;;;;;;;3.15;1.45;;;;;;;;;;5031501;28;20205;-28
2023/05/31 07:46:28;;;;;;;3.50;1.70;;;;;;;;;;5029174;28;20418;-28
2023/05/31 07:48:55;;;;;;;3.13;1.77;;;;;;;;;;5030065;28;20204;-27
2023/05/31 07:51:22;;;;;;;2.60;1.75;;;;;;;;;;5025474;28;20210;-29
2023/05/31 07:53:49;;;;;;;3.13;2.15;;;;;;;;;;5021757;28;20217;-28
2023/05/31 07:56:16;;;;;;;3.40;2.00;;;;;;;;;;5031892;28;20232;-30
2023/05/31 07:58:43;;;;;;;2.50;1.48;;;;;;;;;;5032197;28;20213;-28
2023/05/31 08:01:12;;;;;;;5.15;2.08;;;;;;;;;;5025183;28;20625;-30
2023/05/31 08:03:39;;;;;;;4.05;1.70;;;;;;;;;;5027899;28;20205;-30
2023/05/31 08:06:07;;;;;;;3.22;1.92;;;;;;;;;;5031581;28;20228;-31
2023/05/31 08:08:34;;;;;;;3.78;1.92;;;;;;;;;;5028529;28;20201;-29
2023/05/31 08:11:01;;;;;;;3.30;1.77;;;;;;;;;;5022624;28;20213;-29
2023/05/31 08:13:29;;;;;;;3.03;2.10;;;;;;;;;;5031312;28;20205;-29
2023/05/31 08:15:56;;;;;;;1.67;1.50;;;;;;;;;;5027029;28;20282;-32
2023/05/31 08:18:24;;;;;;;4.85;2.22;;;;;;;;;;5024804;28;20212;-29
2023/05/31 08:20:51;;;;;;;4.47;1.92;;;;;;;;;;5029285;28;20256;-28
2023/05/31 08:23:19;;;;;;;5.57;2.10;;;;;;;;;;5028244;28;20205;-30
2023/05/31 08:25:46;;;;;;;4.35;1.77;;;;;;;;;;5021056;28;20229;-26
2023/05/31 08:28:13;;;;;;;5.10;1.70;;;;;;;;;;5029879;28;20209;-26
2023/05/31 08:30:40;;;;;;;4.05;1.98;;;;;;;;;;5011089;28;20206;-27
2023/05/31 08:33:07;;;;;;;2.65;1.80;;;;;;;;;;5028235;28;20216;-30
2023/05/31 08:35:36;;;;;;;3.42;1.98;;;;;;;;;;5031250;28;20220;-29
2023/05/31 08:38:03;;;;;;;4.18;1.98;;;;;;;;;;5031823;28;20216;-30
2023/05/31 08:40:31;;;;;;;3.35;1.67;;;;;;;;;;5023760;28;20212;-27
2023/05/31 08:43:04;;;;;;;2.40;2.05;;;;;;;;;;5022413;28;20220;-29
2023/05/31 08:45:31;;;;;;;2.90;2.08;;;;;;;;;;5031577;28;20216;-28
2023/05/31 08:48:01;;;;;;;2.90;1.83;;;;;;;;;;5017862;28;20207;-29
2023/05/31 08:50:31;;;;;;;2.47;1.60;;;;;;;;;;5023975;28;20206;-28
2023/05/31 08:53:00;;;;;;;5.32;2.03;;;;;;;;;;5032175;28;20248;-30
2023/05/31 08:55:28;;;;;;;3.50;1.88;;;;;;;;;;5031205;28;20229;-29
2023/05/31 08:57:55;;;;;;;2.95;1.73;;;;;;;;;;5028215;28;20212;-28
2023/05/31 09:00:23;;;;;;;3.08;1.52;;;;;;;;;;5036375;28;20579;-28
2023/05/31 09:02:51;;;;;;;6.43;2.13;;;;;;;;;;5026373;28;20210;-30
2023/05/31 09:05:19;;;;;;;2.67;1.70;;;;;;;;;;5034757;28;20223;-26
2023/05/31 09:07:49;;;;;;;4.50;1.70;;;;;;;;;;5035398;28;20208;-25
2023/05/31 09:10:19;;;;;;;5.25;1.73;;;;;;;;;;5029391;28;20210;-27
2023/05/31 09:12:46;;;;;;;8.68;2.30;;;;;;;;;;5030016;28;20258;-28
2023/05/31 09:15:15;;;;;;;2.45;1.90;;;;;;;;;;5035109;28;20231;-29
2023/05/31 09:25:23;;;;;;;1.95;1.58;;;;;;;;;;5044285;28;20223;-26
2023/05/31 09:27:50;;;;;;;3.45;2.10;;;;;;;;;;5027639;28;20209;-27
2023/05/31 09:30:18;;;;;;;5.13;1.98;;;;;;;;;;5043630;28;20407;-29
2023/05/31 09:32:54;;;;;;;4.03;2.08;;;;;;;;;;5026119;28;20208;-28
2023/05/31 09:35:25;;;;;;;2.85;2.15;;;;;;;;;;5033905;28;20233;-26
2023/05/31 09:37:52;;;;;;;3.03;2.33;;;;;;;;;;5035194;28;20197;-28
2023/05/31 09:40:25;;;;;;;6.22;3.03;;;;;;;;;;5034610;28;20205;-28
2023/05/31 09:42:58;;;;;;;5.20;1.75;;;;;;;;;;5030428;28;20196;-28
2023/05/31 09:45:27;;;;;;;3.47;1.63;;;;;;;;;;5045917;28;20215;-26
2023/05/31 09:47:54;;;;;;;9.60;3.47;;;;;;;;;;5030493;28;20210;-30
2023/05/31 09:50:22;;;;;;;5.25;2.42;;;;;;;;;;5044272;28;20213;-27
2023/05/31 09:52:51;;;;;;;2.65;1.60;;;;;;;;;;5035814;28;20205;-29
2023/05/31 09:55:19;;;;;;;6.32;1.95;;;;;;;;;;5032206;28;20311;-28
2023/05/31 09:57:49;;;;;;;3.40;1.40;;;;;;;;;;5028513;28;20251;-30
2023/05/31 10:00:17;;;;;;;1.77;1.52;;;;;;;;;;5032251;28;20212;-28
2023/05/31 10:02:45;;;;;;;4.05;1.90;;;;;;;;;;5028600;28;20211;-27
2023/05/31 10:05:12;;;;;;;3.58;2.00;;;;;;;;;;5038677;28;20197;-25
2023/05/31 10:07:40;;;;;;;6.78;2.45;;;;;;;;;;5051178;28;20264;-27
2023/05/31 10:10:08;;;;;;;2.40;1.65;;;;;;;;;;5031480;28;20463;-25
2023/05/31 10:12:39;;;;;;;3.33;1.90;;;;;;;;;;5031597;28;20208;-26
2023/05/31 10:15:11;;;;;;;3.35;1.73;;;;;;;;;;5032979;28;20224;-25
2023/05/31 10:17:40;;;;;;;6.10;1.80;;;;;;;;;;5027237;28;20196;-26
2023/05/31 10:20:09;;;;;;;3.30;1.75;;;;;;;;;;5041321;28;20208;-24
2023/05/31 10:22:38;;;;;;;2.60;1.58;;;;;;;;;;5029559;28;20208;-26
2023/05/31 10:25:08;;;;;;;2.53;1.60;;;;;;;;;;5038994;28;20203;-24
2023/05/31 10:27:38;;;;;;;3.63;1.85;;;;;;;;;;5051858;28;20214;-28
2023/05/31 10:30:06;;;;;;;4.72;1.95;;;;;;;;;;5042617;28;20218;-27
2023/05/31 10:32:39;;;;;;;4.57;1.90;;;;;;;;;;5022104;28;20202;-24
2023/05/31 10:35:06;;;;;;;1.80;1.70;;;;;;;;;;5036306;28;20215;-25
2023/05/31 10:37:33;;;;;;;4.25;1.60;;;;;;;;;;5030680;28;20218;-26
2023/05/31 10:40:05;;;;;;;4.22;2.08;;;;;;;;;;5025695;28;20233;-25
2023/05/31 10:42:37;;;;;;;4.60;2.80;;;;;;;;;;5033474;28;20241;-26
2023/05/31 10:45:10;;;;;;;5.85;1.90;;;;;;;;;;5032966;28;20203;-26
2023/05/31 10:47:41;;;;;;;5.85;1.85;;;;;;;;;;5032393;28;20203;-25
2023/05/31 10:50:08;;;;;;;4.72;1.77;;;;;;;;;;5031533;28;20205;-27
2023/05/31 10:52:36;;;;;;;3.38;1.77;;;;;;;;;;5050519;28;20202;-25
2023/05/31 10:55:21;;;;;;;3.30;1.77;;;;;;;;;;5050457;28;20220;-23
2023/05/31 10:57:52;;;;;;;2.80;1.58;;;;;;;;;;5016428;28;20229;-26
2023/05/31 11:00:22;;;;;;;4.75;1.83;;;;;;;;;;5028710;28;20199;-26
2023/05/31 11:02:51;;;;;;;1.88;1.52;;;;;;;;;;5022912;28;20210;-26
2023/05/31 11:05:22;;;;;;;4.53;2.10;;;;;;;;;;5036959;28;20239;-24
2023/05/31 11:07:50;;;;;;;2.58;1.80;;;;;;;;;;5030994;28;20293;-28
2023/05/31 11:10:27;;;;;;;2.67;1.70;;;;;;;;;;5021223;28;20235;-24
2023/05/31 11:12:57;;;;;;;3.17;2.20;;;;;;;;;;5026086;28;20206;-23
2023/05/31 11:15:24;;;;;;;3.53;2.28;;;;;;;;;;5037841;28;20233;-26
2023/05/31 11:17:56;;;;;;;3.00;1.90;;;;;;;;;;5020184;28;20219;-25
2023/05/31 11:20:23;;;;;;;3.47;2.03;;;;;;;;;;5038158;28;20200;-26
2023/05/31 11:23:23;;;;;;;5.97;2.10;;;;;;;;;;5029821;28;20210;-27
2023/05/31 11:26:08;;;;;;;2.15;1.58;;;;;;;;;;5020449;28;20223;-27
2023/05/31 11:28:51;;;;;;;1.63;1.50;;;;;;;;;;5026316;28;20183;-26
2023/05/31 11:31:18;;;;;;;3.55;1.98;;;;;;;;;;5039841;28;20208;-26
2023/05/31 11:33:47;;;;;;;3.67;1.35;;;;;;;;;;5035881;28;20207;-26
2023/05/31 11:36:16;;;;;;;7.35;1.40;;;;;;;;;;5041114;28;20219;-30
2023/05/31 11:38:43;;;;;;;3.75;1.90;;;;;;;;;;5036126;28;20290;-28
2023/05/31 11:41:10;;;;;;;3.47;1.77;;;;;;;;;;5023784;28;20549;-26
2023/05/31 11:43:38;;;;;;;5.95;2.08;;;;;;;;;;5033983;28;20199;-25
2023/05/31 11:46:06;;;;;;;2.40;1.60;;;;;;;;;;5042388;28;20451;-26
2023/05/31 11:48:39;;;;;;;3.47;1.92;;;;;;;;;;5039367;28;20240;-26
2023/05/31 11:51:08;;;;;;;2.78;1.83;;;;;;;;;;5048773;28;20207;-24
2023/05/31 11:53:35;;;;;;;5.18;1.60;;;;;;;;;;5045600;28;20207;-23
2023/05/31 11:56:02;;;;;;;3.30;1.60;;;;;;;;;;5020925;28;20232;-27
2023/05/31 11:58:30;;;;;;;2.80;1.70;;;;;;;;;;5030401;28;20205;-27
2023/05/31 12:01:02;;;;;;;1.92;1.60;;;;;;;;;;5040082;28;20205;-27
2023/05/31 12:03:30;;;;;;;3.85;1.67;;;;;;;;;;5028771;28;20202;-29
2023/05/31 12:06:01;;;;;;;2.47;1.90;;;;;;;;;;5036319;28;20216;-23
2023/05/31 12:08:31;;;;;;;2.00;1.70;;;;;;;;;;5029278;28;20204;-25
2023/05/31 12:11:05;;;;;;;5.25;2.08;;;;;;;;;;5018235;28;20209;-28
2023/05/31 12:13:34;;;;;;;2.00;1.50;;;;;;;;;;5024730;28;20226;-27
2023/05/31 12:16:01;;;;;;;3.08;1.70;;;;;;;;;;5028310;28;20260;-24
2023/05/31 12:18:29;;;;;;;4.93;1.63;;;;;;;;;;5037432;28;20291;-25
2023/05/31 12:20:56;;;;;;;6.65;1.50;;;;;;;;;;5040210;28;20208;-27
2023/05/31 12:23:23;;;;;;;2.00;1.52;;;;;;;;;;5048872;28;20217;-23
2023/05/31 12:25:52;;;;;;;3.30;1.50;;;;;;;;;;5043043;28;20236;-28
2023/05/31 12:28:19;;;;;;;2.17;1.75;;;;;;;;;;5020310;28;20199;-25
2023/05/31 12:30:47;;;;;;;2.53;1.73;;;;;;;;;;5033362;28;20204;-24
2023/05/31 12:33:15;;;;;;;4.38;1.95;;;;;;;;;;5032149;28;20231;-25
2023/05/31 12:35:47;;;;;;;3.42;2.03;;;;;;;;;;5043981;28;20282;-26
2023/05/31 12:38:15;;;;;;;2.67;1.50;;;;;;;;;;5053080;28;20195;-25
2023/05/31 12:40:43;;;;;;;2.60;1.58;;;;;;;;;;5023477;28;20290;-24
2023/05/31 12:43:15;;;;;;;2.05;1.77;;;;;;;;;;5039711;28;20197;-26
2023/05/31 12:45:43;;;;;;;3.13;1.50;;;;;;;;;;5049733;28;20217;-27
2023/05/31 12:48:11;;;;;;;1.70;1.60;;;;;;;;;;5030030;28;20205;-23
2023/05/31 12:50:39;;;;;;;3.78;1.90;;;;;;;;;;5050440;28;20210;-25
2023/05/31 12:53:09;;;;;;;1.80;1.27;;;;;;;;;;5019370;28;20222;-25
2023/05/31 12:55:36;;;;;;;3.05;1.90;;;;;;;;;;5024014;28;20237;-26
2023/05/31 12:58:03;;;;;;;3.08;1.50;;;;;;;;;;5020288;28;20215;-26
2023/05/31 13:00:32;;;;;;;1.73;1.50;;;;;;;;;;5039957;28;20200;-24
2023/05/31 13:03:04;;;;;;;1.92;1.48;;;;;;;;;;5026942;28;20213;-24
2023/05/31 13:05:38;;;;;;;3.78;1.60;;;;;;;;;;5038165;28;20388;-26
2023/05/31 13:08:05;;;;;;;3.28;1.80;;;;;;;;;;5031901;28;20239;-23
2023/05/31 13:10:35;;;;;;;2.67;1.70;;;;;;;;;;5028725;28;20210;-23
2023/05/31 13:13:03;;;;;;;1.50;1.40;;;;;;;;;;5033521;28;20213;-25
2023/05/31 13:15:32;;;;;;;2.75;1.67;;;;;;;;;;5031015;28;20320;-25
2023/05/31 13:17:59;;;;;;;1.92;1.50;;;;;;;;;;5030971;28;20205;-23
2023/05/31 13:20:26;;;;;;;5.00;1.60;;;;;;;;;;5036952;28;20235;-26
2023/05/31 13:22:53;;;;;;;4.85;2.03;;;;;;;;;;5032832;28;20209;-27
2023/05/31 13:25:20;;;;;;;2.72;1.50;;;;;;;;;;5028129;28;20216;-25
2023/05/31 13:27:47;;;;;;;2.50;1.60;;;;;;;;;;5039636;28;20276;-28
2023/05/31 13:30:15;;;;;;;2.35;1.80;;;;;;;;;;5027153;28;20209;-27
2023/05/31 13:32:43;;;;;;;4.03;1.70;;;;;;;;;;5018048;28;20205;-25
2023/05/31 13:35:12;;;;;;;1.90;1.40;;;;;;;;;;5029906;28;20256;-27
2023/05/31 13:37:39;;;;;;;2.90;1.83;;;;;;;;;;5033219;28;20240;-26
2023/05/31 13:40:07;;;;;;;2.38;1.63;;;;;;;;;;5030246;28;20205;-28
2023/05/31 13:42:34;;;;;;;2.00;1.23;;;;;;;;;;5029887;28;20199;-28
2023/05/31 13:45:01;;;;;;;2.45;1.80;;;;;;;;;;5031692;28;20209;-27
2023/05/31 13:47:30;;;;;;;1.20;1.10;;;;;;;;;;5021826;28;20207;-27
2023/05/31 13:49:58;;;;;;;1.63;1.40;;;;;;;;;;5025719;28;20214;-26
2023/05/31 13:52:25;;;;;;;1.85;1.45;;;;;;;;;;5032273;28;20209;-23
2023/05/31 13:54:52;;;;;;;3.58;1.60;;;;;;;;;;5022742;28;20226;-27
2023/05/31 13:57:26;;;;;;;3.35;1.23;;;;;;;;;;5031802;28;20224;-28
2023/05/31 13:59:57;;;;;;;2.92;1.60;;;;;;;;;;5036841;28;20295;-23
2023/05/31 14:02:24;;;;;;;2.10;1.38;;;;;;;;;;5028244;28;20200;-28
2023/05/31 14:04:51;;;;;;;1.63;1.48;;;;;;;;;;5033428;28;20224;-25
2023/05/31 14:07:20;;;;;;;2.53;1.33;;;;;;;;;;5032749;28;20244;-25
2023/05/31 14:09:47;;;;;;;2.38;1.42;;;;;;;;;;5024128;28;20210;-24
2023/05/31 14:12:14;;;;;;;2.75;1.30;;;;;;;;;;5020231;28;20212;-26
2023/05/31 14:14:41;;;;;;;1.60;1.35;;;;;;;;;;5033451;28;20249;-25
2023/05/31 14:17:09;;;;;;;2.63;1.75;;;;;;;;;;5025685;28;20225;-23
2023/05/31 14:19:36;;;;;;;7.03;1.45;;;;;;;;;;5034860;28;20205;-24
2023/05/31 14:22:03;;;;;;;3.45;1.70;;;;;;;;;;5033022;28;20202;-27
2023/05/31 14:24:33;;;;;;;2.08;1.48;;;;;;;;;;5032815;28;20217;-27
2023/05/31 14:27:00;;;;;;;4.70;1.80;;;;;;;;;;5021653;28;20245;-24
2023/05/31 14:29:27;;;;;;;2.65;1.45;;;;;;;;;;5027674;28;20201;-23
2023/05/31 14:31:54;;;;;;;5.45;1.40;;;;;;;;;;5027275;28;20209;-28
2023/05/31 14:34:21;;;;;;;2.15;1.60;;;;;;;;;;5031541;28;20214;-25
2023/05/31 14:36:48;;;;;;;5.47;1.80;;;;;;;;;;5033475;28;20223;-25
2023/05/31 14:39:16;;;;;;;4.25;1.75;;;;;;;;;;5015479;28;20209;-27
2023/05/31 14:41:44;;;;;;;2.10;1.33;;;;;;;;;;5041638;28;20268;-26
2023/05/31 14:44:12;;;;;;;5.18;1.48;;;;;;;;;;5044770;28;20209;-24
2023/05/31 14:46:39;;;;;;;7.20;2.22;;;;;;;;;;5025608;28;20218;-26
2023/05/31 14:49:09;;;;;;;5.10;1.83;;;;;;;;;;5045578;28;20642;-25
2023/05/31 14:51:36;;;;;;;4.90;1.55;;;;;;;;;;5046434;28;20186;-27
2023/05/31 14:54:03;;;;;;;4.82;1.58;;;;;;;;;;5052008;28;20200;-26
2023/05/31 14:56:30;;;;;;;1.75;1.55;;;;;;;;;;5037220;28;20232;-27